Time;durP1;ratioP1;P1;durP2;ratioP2;P2;SDS_P1;SDS_P2;PMS_P1;PMS_P2;Temp;Humidity;BMP_temperature;BMP_pressure;BME280_temperature;BME280_humidity;BME280_pressure;Samples;Min_cycle;Max_cycle;Signal;HPM_P1;HPM_P2
2021/08/11 00:02:21;;;;;;;4.68;2.33;;;;;;;25.52;42.10;101244.84;5094665;28;20465;-79
2021/08/11 00:04:47;;;;;;;4.07;2.00;;;;;;;25.56;41.74;101240.03;5094496;28;20102;-80
2021/08/11 00:07:12;;;;;;;3.80;2.05;;;;;;;25.54;42.11;101236.84;5127199;27;20032;-79
2021/08/11 00:09:38;;;;;;;4.00;1.90;;;;;;;25.51;42.38;101243.25;5094447;28;20020;-79
2021/08/11 00:12:04;;;;;;;4.22;2.45;;;;;;;25.41;42.56;101242.88;5094205;28;20032;-79
2021/08/11 00:14:30;;;;;;;3.20;2.15;;;;;;;25.54;42.31;101237.63;5094736;28;20024;-79
2021/08/11 00:16:56;;;;;;;2.92;1.80;;;;;;;25.49;42.61;101234.47;5094136;28;20077;-80
2021/08/11 00:19:21;;;;;;;2.88;1.77;;;;;;;25.54;42.84;101236.84;5094080;28;20487;-79
2021/08/11 00:21:47;;;;;;;4.38;2.15;;;;;;;25.47;43.40;101229.28;5094254;28;20028;-80
2021/08/11 00:24:13;;;;;;;2.92;1.80;;;;;;;25.55;43.23;101230.84;5093936;28;20028;-79
2021/08/11 00:26:39;;;;;;;3.28;2.00;;;;;;;25.58;43.74;101232.03;5092961;28;20085;-80
2021/08/11 00:29:04;;;;;;;6.88;2.33;;;;;;;25.55;43.72;101232.84;5094239;28;20051;-79
2021/08/11 00:31:31;;;;;;;3.60;2.25;;;;;;;25.48;44.23;101224.47;5093841;28;20103;-79
2021/08/11 00:33:57;;;;;;;3.65;2.20;;;;;;;25.48;44.02;101222.47;5092479;28;20032;-79
2021/08/11 00:36:22;;;;;;;4.15;2.88;;;;;;;25.48;43.83;101222.47;5093755;28;20028;-79
2021/08/11 00:38:48;;;;;;;4.32;2.75;;;;;;;25.56;43.77;101210.06;5093647;28;20028;-80
2021/08/11 00:41:15;;;;;;;6.00;2.90;;;;;;;25.34;43.94;101217.72;5093702;28;20032;-79
2021/08/11 00:43:41;;;;;;;4.15;3.00;;;;;;;25.41;43.66;101212.09;5093362;28;20115;-79
2021/08/11 00:46:11;;;;;;;4.18;2.65;;;;;;;25.41;43.29;101209.31;5093658;28;20020;-79
2021/08/11 00:48:38;;;;;;;4.70;2.87;;;;;;;25.43;42.97;101194.91;5094740;28;20069;-79
2021/08/11 00:51:04;;;;;;;3.95;2.20;;;;;;;25.11;44.10;101206.97;5093472;28;20256;-79
2021/08/11 00:53:33;;;;;;;4.97;2.83;;;;;;;25.38;43.23;101207.28;5093427;28;20030;-80
2021/08/11 00:56:00;;;;;;;3.58;2.83;;;;;;;25.46;42.91;101200.47;5092679;28;20035;-79
2021/08/11 00:58:27;;;;;;;4.63;2.70;;;;;;;25.45;43.35;101210.06;5093442;28;20111;-79
2021/08/11 01:00:54;;;;;;;4.88;2.78;;;;;;;25.34;43.43;101206.53;5093313;28;20067;-79
2021/08/11 01:03:22;;;;;;;4.50;3.17;;;;;;;25.31;43.77;101207.31;5093210;28;20088;-79
2021/08/11 01:05:53;;;;;;;4.43;3.28;;;;;;;25.32;43.82;101208.94;5093228;28;20150;-79
2021/08/11 01:08:21;;;;;;;4.15;2.88;;;;;;;25.39;43.78;101208.09;5091907;28;20052;-79
2021/08/11 01:10:48;;;;;;;5.85;3.40;;;;;;;25.36;43.87;101206.91;5091815;28;20020;-79
2021/08/11 01:13:15;;;;;;;4.60;3.17;;;;;;;25.43;43.59;101208.91;5091811;28;20020;-79
2021/08/11 01:15:46;;;;;;;6.95;4.18;;;;;;;25.47;43.77;101195.72;5093098;28;20478;-80
2021/08/11 01:18:16;;;;;;;4.18;3.25;;;;;;;25.46;43.45;101197.69;5091620;28;20024;-79
2021/08/11 01:20:56;;;;;;;9.73;3.17;;;;;;;25.48;43.93;101196.50;5091786;28;20030;-79
2021/08/11 01:23:29;;;;;;;5.07;3.13;;;;;;;25.54;43.83;101189.28;5092898;28;20031;-79
2021/08/11 01:26:05;;;;;;;6.60;3.20;;;;;;;25.56;43.83;101181.28;5092966;28;20032;-80
2021/08/11 01:29:08;;;;;;;6.63;2.88;;;;;;;25.61;43.54;101178.84;5093194;28;20016;-80
2021/08/11 01:31:58;;;;;;;5.35;2.90;;;;;;;25.66;43.42;101178.44;5079890;28;20040;-80
2021/08/11 01:34:31;;;;;;;4.45;3.08;;;;;;;25.64;43.67;101169.66;5092942;28;20020;-80
2021/08/11 01:37:03;;;;;;;4.95;3.13;;;;;;;25.63;43.74;101172.88;5092752;28;20479;-79
2021/08/11 01:39:41;;;;;;;4.38;2.58;;;;;;;25.66;43.53;101177.66;5091463;28;20024;-79
2021/08/11 01:42:12;;;;;;;5.45;3.30;;;;;;;25.65;43.38;101174.06;5092697;28;20028;-79
2021/08/11 01:44:46;;;;;;;5.25;2.97;;;;;;;25.62;43.72;101177.69;5092579;28;20039;-79
2021/08/11 01:47:14;;;;;;;5.63;2.85;;;;;;;25.71;43.82;101180.03;5092669;28;20024;-79
2021/08/11 01:49:44;;;;;;;4.85;2.58;;;;;;;25.69;43.88;101176.81;5091298;28;20360;-79
2021/08/11 01:52:11;;;;;;;5.93;3.53;;;;;;;25.70;43.49;101176.44;5092563;28;20028;-79
2021/08/11 01:54:41;;;;;;;4.68;2.72;;;;;;;25.69;44.14;101168.44;5092567;28;20025;-79
2021/08/11 01:57:06;;;;;;;4.57;2.80;;;;;;;25.66;44.39;101160.84;5092582;28;20089;-80
2021/08/11 01:59:32;;;;;;;4.82;3.15;;;;;;;25.68;44.08;101155.66;5092486;28;20028;-80
2021/08/11 02:01:58;;;;;;;6.22;3.60;;;;;;;25.68;44.34;101150.03;5091330;28;20186;-79
2021/08/11 02:04:25;;;;;;;7.65;3.10;;;;;;;25.49;45.08;101151.34;5092389;28;20474;-80
2021/08/11 02:06:51;;;;;;;5.50;2.80;;;;;;;25.40;45.35;101154.56;5094519;28;20493;-79
2021/08/11 02:09:19;;;;;;;8.07;2.72;;;;;;;25.38;45.24;101139.38;5097359;28;20020;-79
2021/08/11 02:11:44;;;;;;;3.30;2.40;;;;;;;25.35;45.42;101137.41;5096499;28;20471;-80
2021/08/11 02:14:11;;;;;;;6.18;3.17;;;;;;;25.30;46.00;101137.81;5096488;28;20032;-79
2021/08/11 02:16:41;;;;;;;4.10;3.08;;;;;;;25.29;46.04;101136.22;5096761;28;20020;-79
2021/08/11 02:19:10;;;;;;;5.72;3.33;;;;;;;25.24;46.32;101137.44;5096373;28;20119;-80
2021/08/11 02:21:37;;;;;;;4.97;3.30;;;;;;;25.30;46.21;101138.59;5096312;28;20109;-79
2021/08/11 02:24:06;;;;;;;6.57;3.60;;;;;;;25.32;45.94;101132.63;5094921;28;20024;-79
2021/08/11 02:27:04;;;;;;;4.72;3.20;;;;;;;25.36;45.99;101125.00;5096298;28;20024;-86
2021/08/11 02:29:29;;;;;;;3.42;2.83;;;;;;;25.36;45.94;101128.59;5088110;28;20024;-79
2021/08/11 02:32:19;;;;;;;4.55;2.90;;;;;;;25.31;46.54;101120.59;5097348;28;20111;-79
2021/08/11 02:34:51;;;;;;;6.57;2.70;;;;;;;25.32;46.16;101121.44;5096237;28;20069;-80
2021/08/11 02:37:27;;;;;;;4.07;2.67;;;;;;;25.32;46.47;101113.84;5096207;28;20032;-80
2021/08/11 02:40:15;;;;;;;9.88;2.65;;;;;;;25.33;46.27;101115.44;5096245;28;20024;-80
2021/08/11 02:42:45;;;;;;;4.10;2.35;;;;;;;25.34;46.35;101119.03;5094461;28;20040;-79
2021/08/11 02:45:15;;;;;;;7.00;3.13;;;;;;;25.30;46.65;101110.63;5094875;28;20031;-79
2021/08/11 02:47:42;;;;;;;4.90;2.72;;;;;;;25.33;46.77;101114.63;5095863;28;20085;-80
2021/08/11 02:50:09;;;;;;;3.20;2.38;;;;;;;25.33;46.98;101112.63;5095833;28;20046;-80
2021/08/11 02:52:37;;;;;;;5.28;2.80;;;;;;;25.33;46.79;101103.44;5095776;28;20035;-79
2021/08/11 02:55:04;;;;;;;8.10;3.15;;;;;;;25.34;47.01;101097.44;5094458;28;20024;-79
2021/08/11 02:57:31;;;;;;;6.32;3.45;;;;;;;25.36;46.92;101102.63;5095643;28;20535;-79
2021/08/11 02:59:58;;;;;;;7.20;2.90;;;;;;;25.38;47.25;101098.22;5095614;28;20020;-79
2021/08/11 03:02:25;;;;;;;6.68;3.40;;;;;;;25.42;47.25;101089.81;5095599;28;20028;-79
2021/08/11 03:04:51;;;;;;;4.45;2.90;;;;;;;25.42;47.46;101079.44;5095528;28;20031;-80
2021/08/11 03:07:17;;;;;;;6.60;3.35;;;;;;;25.46;47.08;101085.00;5095489;28;20382;-79
2021/08/11 03:09:43;;;;;;;6.07;2.75;;;;;;;25.43;47.48;101089.41;5095821;28;20028;-80
2021/08/11 03:12:10;;;;;;;6.53;3.40;;;;;;;25.45;47.44;101083.41;5095441;28;20021;-79
2021/08/11 03:14:40;;;;;;;8.10;3.47;;;;;;;25.38;47.98;101092.63;5095290;28;20055;-79
2021/08/11 03:17:10;;;;;;;19.98;4.65;;;;;;;25.43;47.88;101097.78;5095216;28;20161;-79
2021/08/11 03:19:38;;;;;;;5.57;3.42;;;;;;;25.42;47.75;101087.81;5095174;28;20078;-79
2021/08/11 03:22:04;;;;;;;11.07;4.07;;;;;;;25.40;47.82;101089.44;5095222;28;20479;-79
2021/08/11 03:24:30;;;;;;;5.53;3.38;;;;;;;25.42;47.95;101078.63;5095035;28;20028;-79
2021/08/11 03:26:55;;;;;;;5.90;3.35;;;;;;;25.48;47.76;101073.41;5095196;28;20024;-80
2021/08/11 03:29:21;;;;;;;8.90;3.40;;;;;;;25.44;47.84;101073.41;5095190;28;20608;-80
2021/08/11 03:31:48;;;;;;;6.65;3.33;;;;;;;25.45;47.94;101073.00;5095000;28;20387;-81
2021/08/11 03:34:14;;;;;;;5.03;3.20;;;;;;;25.45;47.70;101064.63;5093744;28;20031;-78
2021/08/11 03:36:40;;;;;;;8.82;3.70;;;;;;;25.49;47.79;101063.81;5094913;28;20028;-80
2021/08/11 03:39:05;;;;;;;23.45;6.60;;;;;;;25.49;47.82;101061.03;5094998;28;20028;-80
2021/08/11 03:41:31;;;;;;;7.80;3.45;;;;;;;25.46;48.03;101060.59;5095099;28;20040;-80
2021/08/11 03:43:56;;;;;;;5.05;3.08;;;;;;;25.44;47.95;101062.22;5094555;28;20490;-80
2021/08/11 03:46:22;;;;;;;6.82;3.13;;;;;;;25.37;48.13;101067.84;5093463;28;20024;-80
2021/08/11 03:48:48;;;;;;;14.80;3.97;;;;;;;25.37;48.13;101057.47;5094702;28;20032;-79
2021/08/11 03:51:13;;;;;;;7.03;3.17;;;;;;;25.40;48.34;101053.88;5094668;28;20078;-80
2021/08/11 03:53:40;;;;;;;8.50;2.95;;;;;;;25.36;48.44;101055.88;5094633;28;20119;-79
2021/08/11 03:56:06;;;;;;;8.57;3.58;;;;;;;25.35;48.19;101042.31;5093298;28;20398;-79
2021/08/11 03:58:32;;;;;;;6.82;3.13;;;;;;;25.33;48.49;101039.91;5094748;28;20367;-80
2021/08/11 04:00:58;;;;;;;10.05;4.32;;;;;;;25.36;48.47;101038.28;5094442;28;20031;-80
2021/08/11 04:03:24;;;;;;;7.47;3.03;;;;;;;25.38;48.11;101036.69;5094371;28;20136;-79
2021/08/11 04:05:50;;;;;;;11.55;4.15;;;;;;;25.39;48.13;101027.09;5094328;28;20089;-80
2021/08/11 04:08:18;;;;;;;7.45;3.42;;;;;;;25.41;48.04;101032.28;5094405;28;20038;-79
2021/08/11 04:10:47;;;;;;;6.55;3.95;;;;;;;25.39;48.07;101029.06;5094279;28;20028;-80
2021/08/11 04:13:15;;;;;;;13.35;3.67;;;;;;;25.31;48.34;101030.31;5094501;28;20036;-79
2021/08/11 04:15:42;;;;;;;8.70;4.50;;;;;;;25.37;48.64;101032.28;5094425;28;20385;-79
2021/08/11 04:18:08;;;;;;;6.22;3.75;;;;;;;25.36;48.28;101027.91;5094107;28;20112;-80
2021/08/11 04:20:33;;;;;;;22.67;5.85;;;;;;;25.36;48.32;101030.69;5094063;28;20055;-79
2021/08/11 04:22:59;;;;;;;13.65;5.53;;;;;;;25.36;48.55;101025.09;5094120;28;20020;-79
2021/08/11 04:25:25;;;;;;;18.77;5.25;;;;;;;25.31;48.61;101011.53;5093916;28;20046;-80
2021/08/11 04:27:51;;;;;;;13.02;5.28;;;;;;;25.33;48.66;101019.53;5094368;28;20385;-80
2021/08/11 04:30:16;;;;;;;18.83;6.07;;;;;;;25.34;48.89;101010.75;5093871;28;20024;-80
2021/08/11 04:32:42;;;;;;;9.73;4.45;;;;;;;25.38;48.80;101005.13;5093867;28;20035;-79
2021/08/11 04:35:08;;;;;;;7.40;4.30;;;;;;;25.36;48.67;101008.31;5094081;28;20386;-79
2021/08/11 04:37:38;;;;;;;13.60;5.32;;;;;;;25.35;48.98;100998.34;5094024;28;20366;-80
2021/08/11 04:40:08;;;;;;;18.15;6.22;;;;;;;25.36;48.94;101002.72;5093820;28;20052;-80
2021/08/11 04:42:34;;;;;;;12.27;4.95;;;;;;;25.34;48.98;101001.56;5093596;28;20048;-80
2021/08/11 04:45:00;;;;;;;10.68;5.22;;;;;;;25.35;48.97;101001.16;5093425;28;20028;-84
2021/08/11 04:47:26;;;;;;;18.55;6.13;;;;;;;25.37;48.93;100995.94;5093413;28;20089;-80
2021/08/11 04:49:52;;;;;;;10.55;5.60;;;;;;;25.32;49.08;101001.19;5092047;28;20024;-79
2021/08/11 04:52:17;;;;;;;28.88;9.02;;;;;;;25.36;49.08;100997.13;5093550;28;20424;-79
2021/08/11 04:54:43;;;;;;;38.42;9.52;;;;;;;25.34;48.88;100991.16;5093521;28;20024;-80
2021/08/11 04:57:08;;;;;;;11.07;5.15;;;;;;;25.35;48.85;101000.34;5092128;28;20095;-79
2021/08/11 04:59:34;;;;;;;15.73;6.15;;;;;;;25.39;48.85;101003.91;5093345;28;20055;-79
2021/08/11 05:02:00;;;;;;;15.63;6.80;;;;;;;25.39;49.20;101001.94;5093947;28;20077;-79
2021/08/11 05:04:26;;;;;;;27.75;7.25;;;;;;;25.41;49.01;101009.91;5093738;28;20028;-79
2021/08/11 05:06:51;;;;;;;11.45;5.07;;;;;;;25.39;49.17;101007.53;5093284;28;20024;-79
2021/08/11 05:09:17;;;;;;;23.55;7.68;;;;;;;25.39;49.19;101013.13;5091985;28;20024;-79
2021/08/11 05:11:43;;;;;;;11.70;5.28;;;;;;;25.38;49.19;101017.09;5093137;28;20120;-81
2021/08/11 05:14:09;;;;;;;18.40;5.90;;;;;;;25.35;49.14;101012.34;5093225;28;20065;-80
2021/08/11 05:16:35;;;;;;;11.48;5.30;;;;;;;25.38;49.25;101010.72;5093012;28;20030;-80
2021/08/11 05:19:00;;;;;;;13.65;5.72;;;;;;;25.32;49.50;101012.38;5093324;28;20024;-78
2021/08/11 05:21:26;;;;;;;23.88;7.25;;;;;;;25.30;49.75;101009.16;5093999;28;20420;-78
2021/08/11 05:23:52;;;;;;;18.27;6.82;;;;;;;25.35;49.52;101017.13;5091292;28;20360;-78
2021/08/11 05:26:18;;;;;;;17.73;5.20;;;;;;;25.38;49.44;101017.09;5093011;28;20024;-81
2021/08/11 05:28:45;;;;;;;12.93;5.53;;;;;;;25.39;49.55;101012.28;5091652;28;20025;-78
2021/08/11 05:31:11;;;;;;;32.30;7.07;;;;;;;25.37;49.57;101015.50;5092874;28;20027;-78
2021/08/11 05:33:37;;;;;;;13.23;4.93;;;;;;;25.36;49.86;101010.31;5093100;28;20026;-78
2021/08/11 05:36:03;;;;;;;10.68;5.55;;;;;;;25.46;49.40;101010.25;5092722;28;20445;-78
2021/08/11 05:38:30;;;;;;;14.90;4.72;;;;;;;25.39;49.52;101012.28;5092847;28;20028;-78
2021/08/11 05:40:56;;;;;;;15.63;6.15;;;;;;;25.32;50.06;101001.19;5092322;28;20047;-79
2021/08/11 05:43:22;;;;;;;17.48;6.07;;;;;;;25.39;49.90;100990.75;5092633;28;20113;-79
2021/08/11 05:45:47;;;;;;;23.67;7.10;;;;;;;25.43;49.94;100994.31;5092566;28;20107;-79
2021/08/11 05:48:13;;;;;;;25.67;7.00;;;;;;;25.46;49.67;100989.88;5091340;28;20448;-78
2021/08/11 05:50:39;;;;;;;16.83;6.15;;;;;;;25.53;49.63;100989.03;5092761;28;20024;-78
2021/08/11 05:53:05;;;;;;;15.38;6.20;;;;;;;25.50;49.89;100992.66;5091455;28;20086;-84
2021/08/11 05:55:30;;;;;;;13.23;5.55;;;;;;;25.57;49.61;100993.41;5092940;28;20055;-78
2021/08/11 05:57:56;;;;;;;21.25;6.10;;;;;;;25.61;49.48;100980.19;5092715;28;20036;-78
2021/08/11 06:00:22;;;;;;;12.38;5.88;;;;;;;25.67;49.67;100983.34;5092842;28;20440;-82
2021/08/11 06:02:47;;;;;;;22.58;6.07;;;;;;;25.57;50.02;100975.84;5092831;28;20028;-83
2021/08/11 06:05:13;;;;;;;14.30;5.25;;;;;;;25.61;49.58;100983.00;5092536;28;20117;-78
2021/08/11 06:07:39;;;;;;;20.13;5.80;;;;;;;25.56;50.23;100986.25;5091248;28;20062;-78
2021/08/11 06:10:06;;;;;;;11.15;5.22;;;;;;;25.67;49.72;100986.94;5092557;28;20121;-79
2021/08/11 06:12:32;;;;;;;21.75;7.22;;;;;;;25.69;49.82;100987.34;5092388;28;20028;-79
2021/08/11 06:14:57;;;;;;;12.48;5.95;;;;;;;25.66;49.87;100990.16;5092539;28;20583;-79
2021/08/11 06:17:23;;;;;;;28.48;7.20;;;;;;;25.58;50.34;100988.63;5093001;28;20389;-84
2021/08/11 06:19:49;;;;;;;14.98;5.32;;;;;;;25.65;50.08;100975.38;5092637;28;20032;-83
2021/08/11 06:22:16;;;;;;;15.57;6.47;;;;;;;25.69;49.84;100978.13;5091155;28;20028;-79
2021/08/11 06:24:42;;;;;;;11.10;4.25;;;;;;;25.79;50.03;100982.91;5092524;28;20020;-79
2021/08/11 06:27:08;;;;;;;18.63;6.10;;;;;;;25.81;49.66;100976.91;5092543;28;20024;-78
2021/08/11 06:29:33;;;;;;;11.27;4.32;;;;;;;25.77;50.04;100971.34;5090959;28;20114;-86
2021/08/11 06:31:59;;;;;;;9.40;4.35;;;;;;;25.89;49.78;100984.03;5092587;28;20440;-79
2021/08/11 06:34:25;;;;;;;18.33;5.60;;;;;;;25.87;50.15;100980.84;5092441;28;20027;-84
2021/08/11 06:36:51;;;;;;;20.00;4.72;;;;;;;25.98;49.81;100971.13;5092879;28;20028;-77
2021/08/11 06:39:17;;;;;;;20.02;5.70;;;;;;;26.00;49.63;100974.34;5091227;28;20103;-78
2021/08/11 06:41:43;;;;;;;27.13;6.18;;;;;;;26.03;49.08;100969.13;5091197;28;20027;-79
2021/08/11 06:44:08;;;;;;;18.05;6.03;;;;;;;26.08;49.11;100974.28;5090465;28;20044;-80
2021/08/11 06:46:34;;;;;;;14.07;5.15;;;;;;;26.08;49.13;100968.69;5091420;28;20020;-85
2021/08/11 06:49:00;;;;;;;13.45;3.40;;;;;;;26.05;48.80;100961.09;5090896;28;20475;-79
2021/08/11 06:51:26;;;;;;;5.15;2.95;;;;;;;26.17;48.64;100955.00;5091407;28;20118;-79
2021/08/11 06:53:52;;;;;;;8.25;3.63;;;;;;;26.21;48.30;100955.75;5094328;28;20561;-85
2021/08/11 06:56:18;;;;;;;16.02;4.57;;;;;;;26.12;48.72;100958.22;5096013;28;20028;-84
2021/08/11 06:58:43;;;;;;;21.42;5.78;;;;;;;26.15;48.57;100963.81;5096004;28;20027;-85
2021/08/11 07:01:09;;;;;;;11.45;3.80;;;;;;;26.19;48.25;100958.97;5128980;27;20024;-80
2021/08/11 07:03:35;;;;;;;12.63;4.60;;;;;;;26.29;47.91;100962.84;5095985;28;20122;-85
2021/08/11 07:06:01;;;;;;;17.23;4.82;;;;;;;26.20;48.43;100951.34;5095804;28;20429;-80
2021/08/11 07:08:28;;;;;;;14.77;5.35;;;;;;;26.15;48.52;100969.41;5096033;28;20028;-79
2021/08/11 07:10:53;;;;;;;21.52;6.78;;;;;;;25.96;49.12;100967.97;5094748;28;20027;-85
2021/08/11 07:13:20;;;;;;;20.15;4.85;;;;;;;25.94;49.32;100983.59;5095601;28;20543;-83
2021/08/11 07:15:46;;;;;;;23.65;6.00;;;;;;;25.86;49.37;100984.88;5095696;28;20036;-80
2021/08/11 07:18:16;;;;;;;13.63;4.15;;;;;;;25.82;49.70;100982.06;5095557;28;20072;-84
2021/08/11 07:20:41;;;;;;;;;;;;;;;25.98;48.93;100976.75;5096279;28;20020;-79
2021/08/11 07:23:07;;;;;;;8.18;3.50;;;;;;;26.04;48.96;100965.09;5128553;27;19919;-79
2021/08/11 07:25:33;;;;;;;6.97;3.17;;;;;;;26.04;49.18;100967.91;5095407;28;20030;-79
2021/08/11 07:27:58;;;;;;;6.43;3.08;;;;;;;26.05;49.23;100953.50;5094045;28;20031;-81
2021/08/11 07:30:24;;;;;;;9.07;3.22;;;;;;;26.04;49.50;100946.31;5094319;28;20024;-79
2021/08/11 07:32:50;;;;;;;4.22;2.60;;;;;;;26.24;48.95;100958.53;5095478;28;20387;-79
2021/08/11 07:35:16;;;;;;;6.30;2.95;;;;;;;26.40;48.69;100968.41;5095242;28;20022;-80
2021/08/11 07:37:59;;;;;;;4.68;2.63;;;;;;;26.34;49.00;100972.81;5095273;28;20461;-79
2021/08/11 07:40:26;;;;;;;9.65;3.35;;;;;;;26.28;49.06;100961.28;5095320;28;20513;-79
2021/08/11 07:42:53;;;;;;;15.80;3.97;;;;;;;26.29;48.82;100962.84;5093703;28;20434;-86
2021/08/11 07:45:20;;;;;;;24.45;5.25;;;;;;;26.26;48.73;100953.28;5094867;28;20028;-82
2021/08/11 07:47:48;;;;;;;18.50;4.05;;;;;;;26.27;48.99;100959.69;5093648;28;20097;-79
2021/08/11 07:50:16;;;;;;;11.05;2.75;;;;;;;26.31;49.02;100959.66;5093509;28;20028;-84
2021/08/11 07:52:42;;;;;;;13.05;2.72;;;;;;;26.34;48.71;100962.41;5093530;28;20031;-79
2021/08/11 07:55:08;;;;;;;11.20;3.00;;;;;;;26.37;48.67;100957.97;5093294;28;20031;-78
2021/08/11 07:57:34;;;;;;;14.38;3.67;;;;;;;26.46;48.47;100961.94;5127684;27;20024;-78
2021/08/11 08:00:00;;;;;;;9.23;3.08;;;;;;;26.54;48.35;100948.63;5094755;28;20024;-83
2021/08/11 08:02:26;;;;;;;24.30;3.88;;;;;;;26.59;48.20;100950.16;5094599;28;20040;-78
2021/08/11 08:04:52;;;;;;;13.23;3.85;;;;;;;26.73;47.67;100947.22;5094456;28;20032;-83
2021/08/11 08:07:17;;;;;;;4.40;2.63;;;;;;;26.79;47.91;100951.94;5094524;28;20103;-79
2021/08/11 08:09:43;;;;;;;4.60;2.72;;;;;;;26.81;47.82;100943.09;5093052;28;20024;-79
2021/08/11 08:12:09;;;;;;;6.53;2.30;;;;;;;26.75;48.16;100944.78;5093357;28;20478;-79
2021/08/11 08:14:34;;;;;;;4.72;1.95;;;;;;;26.77;48.16;100942.38;5094680;28;20020;-80
2021/08/11 08:17:00;;;;;;;7.18;2.00;;;;;;;26.89;48.05;100938.19;5093197;28;20081;-80
2021/08/11 08:19:26;;;;;;;5.38;1.95;;;;;;;26.80;48.15;100941.50;5094466;28;20020;-79
2021/08/11 08:21:54;;;;;;;7.10;2.47;;;;;;;26.85;48.00;100943.88;5127257;27;20044;-80
2021/08/11 08:24:20;;;;;;;4.55;2.28;;;;;;;26.94;47.78;100944.13;5094140;28;20069;-82
2021/08/11 08:26:46;;;;;;;6.10;2.25;;;;;;;26.87;47.87;100941.44;5094212;28;20024;-78
2021/08/11 08:29:11;;;;;;;5.82;2.08;;;;;;;26.92;47.76;100938.16;5092976;28;20054;-78
2021/08/11 08:31:37;;;;;;;4.22;1.95;;;;;;;26.83;48.04;100940.69;5095208;28;20408;-82
2021/08/11 08:34:03;;;;;;;5.82;2.20;;;;;;;26.92;47.70;100924.16;5094308;28;20020;-86
2021/08/11 08:36:30;;;;;;;8.45;4.22;;;;;;;26.88;48.15;100926.19;5094296;28;20047;-80
2021/08/11 08:38:56;;;;;;;3.83;2.03;;;;;;;26.69;48.87;100915.63;5094222;28;20486;-78
2021/08/11 08:41:22;;;;;;;4.82;1.75;;;;;;;26.86;48.34;100914.59;5094490;28;20078;-79
2021/08/11 08:43:47;;;;;;;4.95;2.17;;;;;;;26.99;48.08;100920.47;5093763;28;20040;-78
2021/08/11 08:46:15;;;;;;;4.18;2.38;;;;;;;26.94;48.30;100916.09;5093838;28;20036;-79
2021/08/11 08:48:44;;;;;;;3.28;1.77;;;;;;;26.99;48.17;100918.44;5092942;28;20471;-78
2021/08/11 08:51:12;;;;;;;4.15;1.70;;;;;;;26.97;48.36;100906.84;5093772;28;20028;-78
2021/08/11 08:53:44;;;;;;;5.93;2.63;;;;;;;26.98;48.49;100916.84;5093557;28;20071;-78
2021/08/11 08:56:11;;;;;;;3.88;1.67;;;;;;;27.06;48.23;100915.56;5093772;28;20055;-81
2021/08/11 08:58:42;;;;;;;3.10;1.75;;;;;;;26.96;48.35;100916.47;5092491;28;20039;-78
2021/08/11 09:01:08;;;;;;;6.30;2.92;;;;;;;27.05;48.26;100908.38;5092382;28;20032;-79
2021/08/11 09:03:33;;;;;;;3.58;1.60;;;;;;;27.00;48.44;100917.22;5093676;28;20073;-85
2021/08/11 09:06:00;;;;;;;3.97;2.30;;;;;;;26.98;48.28;100921.66;5093609;28;20383;-85
2021/08/11 09:08:26;;;;;;;4.53;1.60;;;;;;;26.89;48.46;100908.16;5092595;28;20028;-79
2021/08/11 09:10:52;;;;;;;4.00;1.73;;;;;;;27.00;48.16;100914.41;5093611;28;20028;-80
2021/08/11 09:13:20;;;;;;;5.50;1.50;;;;;;;27.03;48.21;100910.75;5093541;28;20466;-80
2021/08/11 09:16:04;;;;;;;3.67;1.50;;;;;;;26.97;48.36;100912.44;5125681;27;20035;-80
2021/08/11 09:18:30;;;;;;;2.90;1.45;;;;;;;27.00;48.38;100908.81;5123134;27;20028;-84
2021/08/11 09:20:58;;;;;;;3.72;1.77;;;;;;;27.01;48.64;100904.78;5092004;28;20710;-79
2021/08/11 09:23:43;;;;;;;3.15;2.15;;;;;;;26.94;48.73;100899.28;5092135;28;20123;-84
2021/08/11 09:26:16;;;;;;;3.35;2.03;;;;;;;26.93;48.92;100900.50;5092014;28;20028;-83
2021/08/11 09:28:44;;;;;;;3.72;1.83;;;;;;;27.05;48.63;100897.16;5092503;28;20022;-83
2021/08/11 09:31:20;;;;;;;2.53;1.90;;;;;;;27.17;48.27;100904.19;5093049;28;20036;-79
2021/08/11 09:34:07;;;;;;;4.50;2.00;;;;;;;27.20;48.12;100902.53;5091609;28;20051;-78
2021/08/11 09:36:51;;;;;;;8.27;2.00;;;;;;;27.35;48.00;100896.28;5091365;28;20028;-78
2021/08/11 09:39:18;;;;;;;5.28;2.08;;;;;;;27.35;47.80;100903.91;5092954;28;20030;-82
2021/08/11 09:42:04;;;;;;;5.35;2.17;;;;;;;26.99;48.63;100896.00;5092847;28;20425;-79
2021/08/11 09:44:30;;;;;;;8.82;2.47;;;;;;;27.24;48.03;100897.69;5091383;28;20128;-79
2021/08/11 09:47:12;;;;;;;6.85;2.35;;;;;;;27.52;47.45;100890.84;5091604;28;20062;-79
2021/08/11 09:49:38;;;;;;;8.52;2.28;;;;;;;27.56;47.17;100892.34;5091586;28;20028;-79
2021/08/11 09:52:04;;;;;;;7.47;2.92;;;;;;;27.54;47.56;100894.81;5092959;28;20024;-85
2021/08/11 09:54:32;;;;;;;8.27;2.70;;;;;;;27.72;47.30;100886.09;5091982;28;20020;-85
2021/08/11 09:56:58;;;;;;;3.88;2.67;;;;;;;27.79;46.99;100885.19;5091620;28;20457;-84
2021/08/11 09:59:24;;;;;;;12.18;4.20;;;;;;;27.88;46.66;100877.00;5091829;28;20055;-80
2021/08/11 10:01:50;;;;;;;3.88;2.60;;;;;;;27.92;46.44;100874.94;5091348;28;20053;-85
2021/08/11 10:04:18;;;;;;;12.98;3.95;;;;;;;27.90;46.40;100866.16;5091525;28;20024;-80
2021/08/11 10:06:45;;;;;;;7.88;2.95;;;;;;;28.13;45.78;100874.53;5091707;28;20025;-83
2021/08/11 10:09:15;;;;;;;23.05;6.20;;;;;;;27.93;46.20;100874.50;5091497;28;20093;-80
2021/08/11 10:11:44;;;;;;;17.77;4.60;;;;;;;28.02;45.74;100861.91;5092923;28;20085;-80
2021/08/11 10:14:11;;;;;;;15.98;5.47;;;;;;;28.20;45.42;100868.78;5092784;28;20042;-80
2021/08/11 10:16:37;;;;;;;13.32;4.20;;;;;;;28.07;45.49;100861.44;5125743;28;20028;-79
2021/08/11 10:19:08;;;;;;;31.52;6.32;;;;;;;28.14;45.31;100864.09;5091617;28;20364;-83
2021/08/11 10:21:46;;;;;;;12.80;4.72;;;;;;;28.37;44.80;100863.28;5125625;28;20116;-85
2021/08/11 10:24:12;;;;;;;4.78;3.28;;;;;;;28.17;45.52;100866.03;5091326;28;20032;-81
2021/08/11 10:26:38;;;;;;;15.55;4.60;;;;;;;28.48;44.38;100861.03;5092694;28;20031;-80
2021/08/11 10:29:06;;;;;;;46.08;9.32;;;;;;;28.38;44.71;100867.66;5095359;28;20114;-85
2021/08/11 10:31:33;;;;;;;6.53;3.85;;;;;;;28.38;44.71;100845.19;5096648;28;20020;-83
2021/08/11 10:34:01;;;;;;;6.63;3.58;;;;;;;28.79;43.64;100866.41;5096657;28;20055;-79
2021/08/11 10:36:29;;;;;;;6.65;3.55;;;;;;;28.99;43.71;100862.34;5096505;28;20028;-84
2021/08/11 10:38:56;;;;;;;4.30;2.85;;;;;;;29.16;43.39;100860.34;5096397;28;20028;-79
2021/08/11 10:41:27;;;;;;;5.45;3.20;;;;;;;29.04;43.35;100866.69;5096478;28;20068;-79
2021/08/11 10:43:53;;;;;;;5.35;3.00;;;;;;;29.33;42.80;100864.00;5094426;28;20044;-83
2021/08/11 10:46:20;;;;;;;5.28;2.75;;;;;;;29.25;42.96;100874.63;5094593;28;20039;-79
2021/08/11 10:49:01;;;;;;;8.73;3.55;;;;;;;29.12;44.28;100887.78;5094662;28;20032;-78
2021/08/11 10:51:42;;;;;;;1.48;0.95;;;;;;;28.77;44.73;100889.34;5096046;28;20031;-79
2021/08/11 10:54:10;;;;;;;2.88;1.00;;;;;;;27.83;46.38;100934.47;5095871;28;20028;-79
2021/08/11 10:56:50;;;;;;;3.10;0.80;;;;;;;27.42;46.20;100942.31;5096422;28;20032;-79
2021/08/11 10:59:22;;;;;;;6.63;1.17;;;;;;;27.21;46.37;100943.44;5096034;28;20465;-78
2021/08/11 11:01:48;;;;;;;0.82;0.60;;;;;;;26.87;46.63;100947.03;5095959;28;20020;-77
2021/08/11 11:04:41;;;;;;;1.48;0.85;;;;;;;26.73;47.19;100955.59;5095946;28;20059;-85
2021/08/11 11:07:09;;;;;;;2.00;0.70;;;;;;;26.73;47.33;100959.22;5095968;28;20035;-78
2021/08/11 11:09:36;;;;;;;2.97;1.27;;;;;;;26.57;47.71;100956.19;5096054;28;20028;-82
2021/08/11 11:12:17;;;;;;;1.30;0.85;;;;;;;26.53;48.00;100956.25;5095807;28;20108;-79
2021/08/11 11:14:52;;;;;;;8.48;1.92;;;;;;;27.02;47.33;100956.84;5094231;28;20028;-84
2021/08/11 11:17:28;;;;;;;2.60;1.08;;;;;;;27.11;47.17;100953.56;5095871;28;20020;-79
2021/08/11 11:20:03;;;;;;;1.50;0.80;;;;;;;27.19;47.49;100957.06;5094536;28;20405;-79
2021/08/11 11:22:51;;;;;;;3.20;1.20;;;;;;;26.72;48.58;100951.22;5094386;28;20028;-79
2021/08/11 11:25:18;;;;;;;3.80;1.00;;;;;;;26.89;48.35;100955.00;5095166;28;20070;-79
2021/08/11 11:27:44;;;;;;;4.15;1.10;;;;;;;27.11;47.85;100950.75;5094239;28;20111;-79